sensor_id;sensor_type;location;lat;lon;timestamp;pressure;altitude;pressure_sealevel;temperature;humidity
50380;BME280;37474;59.468;18.040;2022-12-16T00:01:48;100907.00;;;-16.84;97.58
50380;BME280;37474;59.468;18.040;2022-12-16T00:04:17;100850.63;;;-17.14;97.89
50380;BME280;37474;59.468;18.040;2022-12-16T00:06:45;100833.50;;;-16.96;96.88
50380;BME280;37474;59.468;18.040;2022-12-16T00:09:14;100897.13;;;-16.41;95.26
50380;BME280;37474;59.468;18.040;2022-12-16T00:11:42;100893.78;;;-16.69;97.29
50380;BME280;37474;59.468;18.040;2022-12-16T00:14:10;100898.75;;;-16.41;95.61
50380;BME280;37474;59.468;18.040;2022-12-16T00:16:38;100901.34;;;-16.40;94.52
50380;BME280;37474;59.468;18.040;2022-12-16T00:19:06;100905.25;;;-16.71;98.53
50380;BME280;37474;59.468;18.040;2022-12-16T00:21:34;100899.69;;;-16.67;98.14
50380;BME280;37474;59.468;18.040;2022-12-16T00:24:02;100890.63;;;-16.82;98.95
50380;BME280;37474;59.468;18.040;2022-12-16T00:26:32;100916.72;;;-16.73;100.00
50380;BME280;37474;59.468;18.040;2022-12-16T00:29:00;100838.97;;;-16.74;99.91
50380;BME280;37474;59.468;18.040;2022-12-16T00:31:28;100917.25;;;-16.36;100.00
50380;BME280;37474;59.468;18.040;2022-12-16T00:33:56;100899.34;;;-16.17;100.00
50380;BME280;37474;59.468;18.040;2022-12-16T00:36:24;100923.66;;;-16.12;100.00
50380;BME280;37474;59.468;18.040;2022-12-16T00:38:52;100919.16;;;-16.04;100.00
50380;BME280;37474;59.468;18.040;2022-12-16T00:41:20;100901.63;;;-15.92;100.00
50380;BME280;37474;59.468;18.040;2022-12-16T00:43:49;100897.22;;;-15.96;99.70
50380;BME280;37474;59.468;18.040;2022-12-16T00:46:17;100906.94;;;-15.86;100.00
50380;BME280;37474;59.468;18.040;2022-12-16T00:48:45;100924.75;;;-15.64;100.00
50380;BME280;37474;59.468;18.040;2022-12-16T00:51:13;100916.34;;;-15.81;100.00
50380;BME280;37474;59.468;18.040;2022-12-16T00:53:41;100871.38;;;-15.85;100.00
50380;BME280;37474;59.468;18.040;2022-12-16T00:56:11;100906.31;;;-15.82;100.00
50380;BME280;37474;59.468;18.040;2022-12-16T00:58:40;100933.03;;;-15.34;100.00
50380;BME280;37474;59.468;18.040;2022-12-16T01:01:09;100936.75;;;-15.11;100.00
50380;BME280;37474;59.468;18.040;2022-12-16T01:03:38;100937.13;;;-15.20;100.00
50380;BME280;37474;59.468;18.040;2022-12-16T01:06:08;100915.94;;;-15.28;100.00
50380;BME280;37474;59.468;18.040;2022-12-16T01:08:36;100937.47;;;-15.13;100.00
50380;BME280;37474;59.468;18.040;2022-12-16T01:11:05;100932.94;;;-15.21;100.00
50380;BME280;37474;59.468;18.040;2022-12-16T01:13:33;100927.44;;;-15.30;100.00
50380;BME280;37474;59.468;18.040;2022-12-16T01:16:01;100926.41;;;-15.19;100.00
50380;BME280;37474;59.468;18.040;2022-12-16T01:18:31;100934.75;;;-14.87;98.83
50380;BME280;37474;59.468;18.040;2022-12-16T01:21:01;100937.41;;;-15.30;100.00
50380;BME280;37474;59.468;18.040;2022-12-16T01:23:29;100855.13;;;-15.49;100.00
50380;BME280;37474;59.468;18.040;2022-12-16T01:25:59;100936.88;;;-15.09;100.00
50380;BME280;37474;59.468;18.040;2022-12-16T01:28:28;100940.34;;;-14.91;100.00
50380;BME280;37474;59.468;18.040;2022-12-16T01:30:58;100899.09;;;-15.48;100.00
50380;BME280;37474;59.468;18.040;2022-12-16T01:33:28;100937.31;;;-15.46;100.00
50380;BME280;37474;59.468;18.040;2022-12-16T01:36:02;100938.94;;;-15.32;100.00
50380;BME280;37474;59.468;18.040;2022-12-16T01:38:31;100939.63;;;-15.20;100.00
50380;BME280;37474;59.468;18.040;2022-12-16T01:40:59;100947.00;;;-15.51;100.00
50380;BME280;37474;59.468;18.040;2022-12-16T01:43:29;100941.97;;;-15.67;100.00
50380;BME280;37474;59.468;18.040;2022-12-16T01:46:01;100852.31;;;-16.72;100.00
50380;BME280;37474;59.468;18.040;2022-12-16T01:48:34;100946.78;;;-16.13;100.00
50380;BME280;37474;59.468;18.040;2022-12-16T01:51:09;100955.78;;;-16.00;100.00
50380;BME280;37474;59.468;18.040;2022-12-16T01:53:39;100957.56;;;-15.69;100.00
50380;BME280;37474;59.468;18.040;2022-12-16T01:56:10;100948.38;;;-15.85;100.00
50380;BME280;37474;59.468;18.040;2022-12-16T01:58:41;100957.69;;;-15.96;100.00
50380;BME280;37474;59.468;18.040;2022-12-16T02:01:09;100956.25;;;-15.78;100.00
50380;BME280;37474;59.468;18.040;2022-12-16T02:03:37;100962.16;;;-15.90;100.00
50380;BME280;37474;59.468;18.040;2022-12-16T02:06:07;100954.72;;;-15.76;100.00
50380;BME280;37474;59.468;18.040;2022-12-16T02:08:35;100954.53;;;-15.79;100.00
50380;BME280;37474;59.468;18.040;2022-12-16T02:11:22;100952.22;;;-15.46;100.00
50380;BME280;37474;59.468;18.040;2022-12-16T02:14:24;100954.53;;;-15.79;100.00
50380;BME280;37474;59.468;18.040;2022-12-16T02:16:59;100927.81;;;-16.26;100.00
50380;BME280;37474;59.468;18.040;2022-12-16T02:19:53;100963.50;;;-15.95;100.00
50380;BME280;37474;59.468;18.040;2022-12-16T02:22:40;100968.50;;;-15.81;100.00
50380;BME280;37474;59.468;18.040;2022-12-16T02:25:32;100939.53;;;-16.10;100.00
50380;BME280;37474;59.468;18.040;2022-12-16T02:28:07;100961.16;;;-16.07;100.00
50380;BME280;37474;59.468;18.040;2022-12-16T02:30:54;100968.84;;;-15.89;100.00
50380;BME280;37474;59.468;18.040;2022-12-16T02:33:45;100913.28;;;-16.47;100.00
50380;BME280;37474;59.468;18.040;2022-12-16T02:36:23;100935.31;;;-16.39;100.00
50380;BME280;37474;59.468;18.040;2022-12-16T02:38:56;100967.56;;;-16.39;100.00
50380;BME280;37474;59.468;18.040;2022-12-16T02:41:33;100927.28;;;-16.35;100.00
50380;BME280;37474;59.468;18.040;2022-12-16T02:44:06;100969.78;;;-15.87;100.00
50380;BME280;37474;59.468;18.040;2022-12-16T02:46:39;100909.09;;;-16.20;100.00
50380;BME280;37474;59.468;18.040;2022-12-16T02:49:40;100969.25;;;-15.96;100.00
50380;BME280;37474;59.468;18.040;2022-12-16T02:52:10;100964.94;;;-15.99;100.00
50380;BME280;37474;59.468;18.040;2022-12-16T02:54:40;100965.00;;;-16.12;100.00
50380;BME280;37474;59.468;18.040;2022-12-16T03:00:02;100974.25;;;-15.82;100.00
50380;BME280;37474;59.468;18.040;2022-12-16T03:02:37;100975.63;;;-15.72;100.00
50380;BME280;37474;59.468;18.040;2022-12-16T03:05:11;100973.72;;;-15.61;100.00
50380;BME280;37474;59.468;18.040;2022-12-16T03:07:43;100930.38;;;-15.96;100.00
50380;BME280;37474;59.468;18.040;2022-12-16T03:10:15;100982.91;;;-15.46;100.00
50380;BME280;37474;59.468;18.040;2022-12-16T03:12:45;100983.69;;;-15.47;100.00
50380;BME280;37474;59.468;18.040;2022-12-16T03:15:14;100986.69;;;-15.52;100.00
50380;BME280;37474;59.468;18.040;2022-12-16T03:17:47;100950.16;;;-15.83;100.00
50380;BME280;37474;59.468;18.040;2022-12-16T03:20:19;101005.72;;;-15.67;100.00
50380;BME280;37474;59.468;18.040;2022-12-16T03:22:51;100977.09;;;-15.76;100.00
50380;BME280;37474;59.468;18.040;2022-12-16T03:25:22;100998.53;;;-15.48;100.00
50380;BME280;37474;59.468;18.040;2022-12-16T03:27:56;101002.97;;;-15.42;100.00
50380;BME280;37474;59.468;18.040;2022-12-16T03:30:28;101003.41;;;-15.20;100.00
50380;BME280;37474;59.468;18.040;2022-12-16T03:33:02;101006.81;;;-15.33;100.00
50380;BME280;37474;59.468;18.040;2022-12-16T03:35:35;100997.31;;;-15.25;100.00
50380;BME280;37474;59.468;18.040;2022-12-16T03:38:06;101003.31;;;-15.51;100.00
50380;BME280;37474;59.468;18.040;2022-12-16T03:40:37;101005.81;;;-15.36;100.00
50380;BME280;37474;59.468;18.040;2022-12-16T03:43:09;101014.88;;;-15.52;100.00
50380;BME280;37474;59.468;18.040;2022-12-16T03:45:42;101017.16;;;-15.55;100.00
50380;BME280;37474;59.468;18.040;2022-12-16T03:48:13;101017.06;;;-14.99;100.00
50380;BME280;37474;59.468;18.040;2022-12-16T03:50:43;101020.47;;;-15.11;100.00
50380;BME280;37474;59.468;18.040;2022-12-16T03:53:11;101017.88;;;-15.28;100.00
50380;BME280;37474;59.468;18.040;2022-12-16T03:55:39;101015.75;;;-15.36;100.00
50380;BME280;37474;59.468;18.040;2022-12-16T03:58:07;101014.53;;;-15.28;100.00
50380;BME280;37474;59.468;18.040;2022-12-16T04:00:35;100960.97;;;-15.67;100.00
50380;BME280;37474;59.468;18.040;2022-12-16T04:03:03;100999.78;;;-15.55;100.00
50380;BME280;37474;59.468;18.040;2022-12-16T04:05:33;101000.81;;;-15.51;100.00
50380;BME280;37474;59.468;18.040;2022-12-16T04:08:01;100977.78;;;-15.63;100.00
50380;BME280;37474;59.468;18.040;2022-12-16T04:10:29;100973.72;;;-15.17;100.00
50380;BME280;37474;59.468;18.040;2022-12-16T04:13:15;101022.78;;;-15.14;100.00
50380;BME280;37474;59.468;18.040;2022-12-16T04:16:00;101000.59;;;-15.26;100.00
50380;BME280;37474;59.468;18.040;2022-12-16T04:18:46;100944.63;;;-15.64;100.00
50380;BME280;37474;59.468;18.040;2022-12-16T04:21:33;101020.13;;;-15.03;100.00
50380;BME280;37474;59.468;18.040;2022-12-16T04:24:23;101027.44;;;-15.21;100.00
50380;BME280;37474;59.468;18.040;2022-12-16T04:26:54;100984.44;;;-15.77;100.00
50380;BME280;37474;59.468;18.040;2022-12-16T04:29:41;101035.72;;;-15.64;100.00
50380;BME280;37474;59.468;18.040;2022-12-16T04:32:23;101041.06;;;-15.72;100.00
50380;BME280;37474;59.468;18.040;2022-12-16T04:34:51;101042.25;;;-15.80;100.00
50380;BME280;37474;59.468;18.040;2022-12-16T04:37:20;101019.09;;;-15.93;100.00
50380;BME280;37474;59.468;18.040;2022-12-16T04:40:08;101049.06;;;-15.62;100.00
50380;BME280;37474;59.468;18.040;2022-12-16T04:42:54;101017.28;;;-15.68;100.00
50380;BME280;37474;59.468;18.040;2022-12-16T04:45:39;101050.81;;;-15.32;100.00
50380;BME280;37474;59.468;18.040;2022-12-16T04:48:25;100970.66;;;-15.87;100.00
50380;BME280;37474;59.468;18.040;2022-12-16T04:51:10;101005.25;;;-15.60;100.00
50380;BME280;37474;59.468;18.040;2022-12-16T04:53:57;101068.84;;;-15.06;100.00
50380;BME280;37474;59.468;18.040;2022-12-16T04:56:43;101077.91;;;-14.77;100.00
50380;BME280;37474;59.468;18.040;2022-12-16T04:59:28;101026.38;;;-15.24;100.00
50380;BME280;37474;59.468;18.040;2022-12-16T05:02:14;101093.78;;;-15.20;100.00
50380;BME280;37474;59.468;18.040;2022-12-16T05:04:59;101094.75;;;-15.46;100.00
50380;BME280;37474;59.468;18.040;2022-12-16T05:07:45;101009.84;;;-15.96;100.00
50380;BME280;37474;59.468;18.040;2022-12-16T05:10:32;101060.66;;;-15.91;100.00
50380;BME280;37474;59.468;18.040;2022-12-16T05:13:17;101103.59;;;-15.79;100.00
50380;BME280;37474;59.468;18.040;2022-12-16T05:16:03;101111.94;;;-16.05;100.00
50380;BME280;37474;59.468;18.040;2022-12-16T05:18:49;101060.16;;;-16.40;100.00
50380;BME280;37474;59.468;18.040;2022-12-16T05:21:34;101091.81;;;-16.22;100.00
50380;BME280;37474;59.468;18.040;2022-12-16T05:24:20;101096.97;;;-15.93;100.00
50380;BME280;37474;59.468;18.040;2022-12-16T05:27:07;101095.88;;;-15.83;100.00
50380;BME280;37474;59.468;18.040;2022-12-16T05:30:08;101105.50;;;-15.75;100.00
50380;BME280;37474;59.468;18.040;2022-12-16T05:32:59;101106.75;;;-15.53;100.00
50380;BME280;37474;59.468;18.040;2022-12-16T05:35:45;101110.50;;;-15.60;100.00
50380;BME280;37474;59.468;18.040;2022-12-16T05:38:30;101116.59;;;-15.69;100.00
50380;BME280;37474;59.468;18.040;2022-12-16T05:41:16;101078.06;;;-16.17;100.00
50380;BME280;37474;59.468;18.040;2022-12-16T05:44:03;101128.50;;;-15.49;100.00
50380;BME280;37474;59.468;18.040;2022-12-16T05:46:49;101123.28;;;-15.26;100.00
50380;BME280;37474;59.468;18.040;2022-12-16T05:49:34;101094.91;;;-15.57;100.00
50380;BME280;37474;59.468;18.040;2022-12-16T05:52:20;101139.13;;;-15.24;100.00
50380;BME280;37474;59.468;18.040;2022-12-16T05:55:06;101095.13;;;-15.95;100.00
50380;BME280;37474;59.468;18.040;2022-12-16T05:57:59;101138.00;;;-15.85;100.00
50380;BME280;37474;59.468;18.040;2022-12-16T06:00:46;101142.41;;;-15.94;100.00
50380;BME280;37474;59.468;18.040;2022-12-16T06:03:31;101151.97;;;-16.00;100.00
50380;BME280;37474;59.468;18.040;2022-12-16T06:06:17;101157.41;;;-16.32;100.00
50380;BME280;37474;59.468;18.040;2022-12-16T06:09:02;101115.53;;;-16.41;100.00
50380;BME280;37474;59.468;18.040;2022-12-16T06:11:48;101151.13;;;-16.40;100.00
50380;BME280;37474;59.468;18.040;2022-12-16T06:14:34;101165.06;;;-16.42;100.00
50380;BME280;37474;59.468;18.040;2022-12-16T06:17:21;101136.63;;;-16.74;100.00
50380;BME280;37474;59.468;18.040;2022-12-16T06:20:21;101172.91;;;-15.96;100.00
50380;BME280;37474;59.468;18.040;2022-12-16T06:23:05;101174.13;;;-15.90;100.00
50380;BME280;37474;59.468;18.040;2022-12-16T06:25:51;101178.59;;;-15.84;100.00
50380;BME280;37474;59.468;18.040;2022-12-16T06:28:36;101174.50;;;-15.84;100.00
50380;BME280;37474;59.468;18.040;2022-12-16T06:31:24;101179.50;;;-15.97;100.00
50380;BME280;37474;59.468;18.040;2022-12-16T06:34:25;101175.84;;;-16.29;100.00
50380;BME280;37474;59.468;18.040;2022-12-16T06:37:11;101188.13;;;-16.43;100.00
50380;BME280;37474;59.468;18.040;2022-12-16T06:39:56;101189.00;;;-16.56;100.00
50380;BME280;37474;59.468;18.040;2022-12-16T06:42:42;101199.28;;;-16.76;100.00
50380;BME280;37474;59.468;18.040;2022-12-16T06:45:27;101134.88;;;-17.38;100.00
50380;BME280;37474;59.468;18.040;2022-12-16T06:48:13;101203.69;;;-16.59;100.00
50380;BME280;37474;59.468;18.040;2022-12-16T06:51:00;101225.69;;;-16.77;100.00
50380;BME280;37474;59.468;18.040;2022-12-16T06:53:45;101213.34;;;-16.89;100.00
50380;BME280;37474;59.468;18.040;2022-12-16T06:56:31;101200.59;;;-17.31;99.94
50380;BME280;37474;59.468;18.040;2022-12-16T06:59:16;101248.97;;;-17.25;100.00
50380;BME280;37474;59.468;18.040;2022-12-16T07:02:02;101252.97;;;-17.50;100.00
50380;BME280;37474;59.468;18.040;2022-12-16T07:04:47;101250.81;;;-17.34;100.00
50380;BME280;37474;59.468;18.040;2022-12-16T07:07:34;101264.84;;;-17.46;99.64
50380;BME280;37474;59.468;18.040;2022-12-16T07:10:22;101281.97;;;-17.61;100.00
50380;BME280;37474;59.468;18.040;2022-12-16T07:13:07;101284.16;;;-17.77;100.00
50380;BME280;37474;59.468;18.040;2022-12-16T07:15:52;101284.06;;;-17.91;99.82
50380;BME280;37474;59.468;18.040;2022-12-16T07:18:38;101288.16;;;-18.03;100.00
50380;BME280;37474;59.468;18.040;2022-12-16T07:21:24;101239.59;;;-18.24;100.00
50380;BME280;37474;59.468;18.040;2022-12-16T07:24:11;101290.38;;;-17.71;100.00
50380;BME280;37474;59.468;18.040;2022-12-16T07:26:56;101295.00;;;-18.10;98.79
50380;BME280;37474;59.468;18.040;2022-12-16T07:29:41;101256.75;;;-18.37;99.89
50380;BME280;37474;59.468;18.040;2022-12-16T07:32:26;101237.69;;;-18.74;98.65
50380;BME280;37474;59.468;18.040;2022-12-16T07:35:12;101281.38;;;-18.51;98.71
50380;BME280;37474;59.468;18.040;2022-12-16T07:37:58;101269.75;;;-18.52;98.90
50380;BME280;37474;59.468;18.040;2022-12-16T07:40:46;101266.88;;;-18.34;97.57
50380;BME280;37474;59.468;18.040;2022-12-16T07:43:32;101316.88;;;-17.93;96.88
50380;BME280;37474;59.468;18.040;2022-12-16T07:46:17;101276.41;;;-18.51;98.47
50380;BME280;37474;59.468;18.040;2022-12-16T07:49:03;101256.38;;;-18.66;97.76
50380;BME280;37474;59.468;18.040;2022-12-16T07:51:48;101324.84;;;-17.97;97.44
50380;BME280;37474;59.468;18.040;2022-12-16T07:54:34;101263.56;;;-18.80;96.71
50380;BME280;37474;59.468;18.040;2022-12-16T07:57:22;101335.00;;;-18.16;96.86
50380;BME280;37474;59.468;18.040;2022-12-16T08:00:25;101307.84;;;-18.38;97.16
50380;BME280;37474;59.468;18.040;2022-12-16T08:03:11;101329.03;;;-18.08;97.65
50380;BME280;37474;59.468;18.040;2022-12-16T08:05:57;101324.53;;;-18.35;97.27
50380;BME280;37474;59.468;18.040;2022-12-16T08:08:50;101330.81;;;-18.51;96.86
50380;BME280;37474;59.468;18.040;2022-12-16T08:11:36;101286.97;;;-18.87;97.76
50380;BME280;37474;59.468;18.040;2022-12-16T08:14:23;101329.97;;;-18.51;99.02
50380;BME280;37474;59.468;18.040;2022-12-16T08:17:08;101316.91;;;-18.60;98.64
50380;BME280;37474;59.468;18.040;2022-12-16T08:19:54;101330.22;;;-17.68;96.46
50380;BME280;37474;59.468;18.040;2022-12-16T08:22:39;101333.03;;;-17.63;93.12
50380;BME280;37474;59.468;18.040;2022-12-16T08:25:25;101315.78;;;-18.20;95.99
50380;BME280;37474;59.468;18.040;2022-12-16T08:28:10;101350.63;;;-18.17;97.04
50380;BME280;37474;59.468;18.040;2022-12-16T08:30:57;101357.56;;;-18.01;96.72
50380;BME280;37474;59.468;18.040;2022-12-16T08:33:43;101363.19;;;-17.92;97.26
50380;BME280;37474;59.468;18.040;2022-12-16T08:36:28;101365.22;;;-17.98;96.36
50380;BME280;37474;59.468;18.040;2022-12-16T08:39:14;101372.03;;;-17.72;96.60
50380;BME280;37474;59.468;18.040;2022-12-16T08:41:59;101357.16;;;-17.72;98.17
50380;BME280;37474;59.468;18.040;2022-12-16T08:44:45;101379.75;;;-17.56;99.52
50380;BME280;37474;59.468;18.040;2022-12-16T08:47:31;101385.03;;;-17.40;100.00
50380;BME280;37474;59.468;18.040;2022-12-16T08:50:17;101299.88;;;-17.77;99.54
50380;BME280;37474;59.468;18.040;2022-12-16T08:53:02;101392.47;;;-17.16;100.00
50380;BME280;37474;59.468;18.040;2022-12-16T08:55:47;101396.69;;;-17.15;99.53
50380;BME280;37474;59.468;18.040;2022-12-16T08:58:34;101394.53;;;-17.22;98.74
50380;BME280;37474;59.468;18.040;2022-12-16T09:01:21;101389.25;;;-17.03;97.49
50380;BME280;37474;59.468;18.040;2022-12-16T09:04:08;101396.78;;;-17.02;99.44
50380;BME280;37474;59.468;18.040;2022-12-16T09:06:53;101394.66;;;-17.09;99.51
50380;BME280;37474;59.468;18.040;2022-12-16T09:09:39;101396.53;;;-16.93;100.00
50380;BME280;37474;59.468;18.040;2022-12-16T09:12:25;101324.66;;;-17.05;99.57
50380;BME280;37474;59.468;18.040;2022-12-16T09:15:10;101395.38;;;-16.62;97.49
50380;BME280;37474;59.468;18.040;2022-12-16T09:17:56;101392.44;;;-16.56;96.95
50380;BME280;37474;59.468;18.040;2022-12-16T09:20:43;101397.09;;;-16.86;95.90
50380;BME280;37474;59.468;18.040;2022-12-16T09:23:28;101349.69;;;-17.02;94.54
50380;BME280;37474;59.468;18.040;2022-12-16T09:26:14;101403.00;;;-16.84;95.26
50380;BME280;37474;59.468;18.040;2022-12-16T09:28:59;101348.91;;;-17.01;94.00
50380;BME280;37474;59.468;18.040;2022-12-16T09:31:45;101393.75;;;-16.86;95.08
50380;BME280;37474;59.468;18.040;2022-12-16T09:34:30;101386.13;;;-16.64;94.03
50380;BME280;37474;59.468;18.040;2022-12-16T09:37:17;101402.66;;;-16.76;95.98
50380;BME280;37474;59.468;18.040;2022-12-16T09:40:04;101384.88;;;-16.83;96.19
50380;BME280;37474;59.468;18.040;2022-12-16T09:42:53;101404.28;;;-16.77;98.41
50380;BME280;37474;59.468;18.040;2022-12-16T09:45:44;101367.03;;;-17.02;96.74
50380;BME280;37474;59.468;18.040;2022-12-16T09:48:36;101404.72;;;-16.83;97.01
50380;BME280;37474;59.468;18.040;2022-12-16T09:51:24;101409.69;;;-16.83;96.70
50380;BME280;37474;59.468;18.040;2022-12-16T09:54:14;101414.38;;;-16.62;95.48
50380;BME280;37474;59.468;18.040;2022-12-16T09:57:02;101424.72;;;-16.19;94.20
50380;BME280;37474;59.468;18.040;2022-12-16T09:59:52;101416.19;;;-16.48;97.44
50380;BME280;37474;59.468;18.040;2022-12-16T10:02:39;101364.00;;;-16.98;97.84
50380;BME280;37474;59.468;18.040;2022-12-16T10:05:37;101414.16;;;-16.65;97.42
50380;BME280;37474;59.468;18.040;2022-12-16T10:08:33;101380.56;;;-16.73;97.68
50380;BME280;37474;59.468;18.040;2022-12-16T10:11:27;101406.78;;;-16.52;98.11
50380;BME280;37474;59.468;18.040;2022-12-16T10:14:25;101391.94;;;-16.64;99.58
50380;BME280;37474;59.468;18.040;2022-12-16T10:17:19;101418.09;;;-16.44;98.48
50380;BME280;37474;59.468;18.040;2022-12-16T10:20:12;101414.63;;;-16.09;96.84
50380;BME280;37474;59.468;18.040;2022-12-16T10:23:04;101416.91;;;-16.12;96.77
50380;BME280;37474;59.468;18.040;2022-12-16T10:25:55;101411.75;;;-16.27;97.69
50380;BME280;37474;59.468;18.040;2022-12-16T10:28:48;101418.38;;;-16.03;95.08
50380;BME280;37474;59.468;18.040;2022-12-16T10:31:36;101427.28;;;-16.18;94.66
50380;BME280;37474;59.468;18.040;2022-12-16T10:34:26;101428.63;;;-16.35;96.46
50380;BME280;37474;59.468;18.040;2022-12-16T10:37:15;101421.25;;;-16.58;97.76
50380;BME280;37474;59.468;18.040;2022-12-16T10:40:05;101440.09;;;-16.73;98.29
50380;BME280;37474;59.468;18.040;2022-12-16T10:43:00;101441.28;;;-16.32;97.76
50380;BME280;37474;59.468;18.040;2022-12-16T10:45:51;101452.75;;;-16.09;97.79
50380;BME280;37474;59.468;18.040;2022-12-16T10:48:38;101397.84;;;-16.25;99.51
50380;BME280;37474;59.468;18.040;2022-12-16T10:51:27;101453.97;;;-15.77;100.00
50380;BME280;37474;59.468;18.040;2022-12-16T10:54:27;101389.44;;;-16.02;99.01
50380;BME280;37474;59.468;18.040;2022-12-16T10:57:22;101447.56;;;-15.35;96.91
50380;BME280;37474;59.468;18.040;2022-12-16T11:00:14;101454.53;;;-15.30;98.28
50380;BME280;37474;59.468;18.040;2022-12-16T11:03:19;101456.56;;;-15.37;98.70
50380;BME280;37474;59.468;18.040;2022-12-16T11:06:06;101413.22;;;-15.54;97.94
50380;BME280;37474;59.468;18.040;2022-12-16T11:08:53;101467.19;;;-15.00;97.55
50380;BME280;37474;59.468;18.040;2022-12-16T11:11:38;101432.63;;;-15.35;98.73
50380;BME280;37474;59.468;18.040;2022-12-16T11:14:25;101463.66;;;-15.04;96.91
50380;BME280;37474;59.468;18.040;2022-12-16T11:17:31;101459.06;;;-14.98;95.14
50380;BME280;37474;59.468;18.040;2022-12-16T11:20:20;101467.28;;;-15.12;97.16
50380;BME280;37474;59.468;18.040;2022-12-16T11:23:18;101457.34;;;-14.99;96.41
50380;BME280;37474;59.468;18.040;2022-12-16T11:26:09;101462.81;;;-15.04;95.82
50380;BME280;37474;59.468;18.040;2022-12-16T11:29:08;101474.16;;;-14.95;94.34
50380;BME280;37474;59.468;18.040;2022-12-16T11:31:58;101480.06;;;-15.32;96.07
50380;BME280;37474;59.468;18.040;2022-12-16T11:34:49;101472.75;;;-15.56;96.99
50380;BME280;37474;59.468;18.040;2022-12-16T11:37:39;101471.84;;;-15.83;97.88
50380;BME280;37474;59.468;18.040;2022-12-16T11:40:27;101481.66;;;-15.59;97.98
50380;BME280;37474;59.468;18.040;2022-12-16T11:43:15;101483.16;;;-15.61;99.18
50380;BME280;37474;59.468;18.040;2022-12-16T11:46:05;101446.50;;;-15.65;97.98
50380;BME280;37474;59.468;18.040;2022-12-16T11:48:57;101495.56;;;-15.23;97.50
50380;BME280;37474;59.468;18.040;2022-12-16T11:51:53;101510.41;;;-15.25;99.64
50380;BME280;37474;59.468;18.040;2022-12-16T11:55:09;101509.28;;;-14.77;100.00
50380;BME280;37474;59.468;18.040;2022-12-16T11:58:20;101469.50;;;-15.03;100.00
50380;BME280;37474;59.468;18.040;2022-12-16T12:01:11;101500.69;;;-14.82;100.00
50380;BME280;37474;59.468;18.040;2022-12-16T12:03:59;101502.91;;;-14.60;100.00
50380;BME280;37474;59.468;18.040;2022-12-16T12:07:22;101476.47;;;-14.58;100.00
50380;BME280;37474;59.468;18.040;2022-12-16T12:10:28;101496.13;;;-14.34;100.00
50380;BME280;37474;59.468;18.040;2022-12-16T12:13:24;101503.78;;;-14.31;100.00
50380;BME280;37474;59.468;18.040;2022-12-16T12:16:18;101502.31;;;-14.28;100.00
50380;BME280;37474;59.468;18.040;2022-12-16T12:19:31;101500.44;;;-14.32;100.00
50380;BME280;37474;59.468;18.040;2022-12-16T12:22:28;101496.91;;;-14.07;99.87
50380;BME280;37474;59.468;18.040;2022-12-16T12:25:21;101494.00;;;-14.00;98.25
50380;BME280;37474;59.468;18.040;2022-12-16T12:28:16;101497.00;;;-13.78;96.61
50380;BME280;37474;59.468;18.040;2022-12-16T12:31:12;101483.19;;;-14.01;96.66
50380;BME280;37474;59.468;18.040;2022-12-16T12:34:06;101502.19;;;-14.03;96.94
50380;BME280;37474;59.468;18.040;2022-12-16T12:36:57;101498.13;;;-14.29;97.45
50380;BME280;37474;59.468;18.040;2022-12-16T12:39:49;101506.47;;;-14.42;97.75
50380;BME280;37474;59.468;18.040;2022-12-16T12:42:43;101509.88;;;-14.54;98.75
50380;BME280;37474;59.468;18.040;2022-12-16T12:45:52;101524.47;;;-14.46;97.77
50380;BME280;37474;59.468;18.040;2022-12-16T12:48:45;101524.00;;;-14.40;97.80
50380;BME280;37474;59.468;18.040;2022-12-16T12:51:37;101526.72;;;-14.50;98.89
50380;BME280;37474;59.468;18.040;2022-12-16T12:54:33;101528.53;;;-14.48;99.74
50380;BME280;37474;59.468;18.040;2022-12-16T12:57:25;101493.22;;;-14.69;100.00
50380;BME280;37474;59.468;18.040;2022-12-16T13:00:16;101539.38;;;-14.32;100.00
50380;BME280;37474;59.468;18.040;2022-12-16T13:03:06;101521.97;;;-14.32;100.00
50380;BME280;37474;59.468;18.040;2022-12-16T13:05:58;101527.44;;;-14.38;100.00
50380;BME280;37474;59.468;18.040;2022-12-16T13:08:54;101535.16;;;-14.48;98.74
50380;BME280;37474;59.468;18.040;2022-12-16T13:12:20;101537.13;;;-14.82;98.71
50380;BME280;37474;59.468;18.040;2022-12-16T13:15:07;101532.28;;;-14.81;98.90
50380;BME280;37474;59.468;18.040;2022-12-16T13:18:18;101533.22;;;-14.66;97.59
50380;BME280;37474;59.468;18.040;2022-12-16T13:21:47;101531.59;;;-14.78;97.84
50380;BME280;37474;59.468;18.040;2022-12-16T13:24:38;101535.13;;;-15.01;98.63
50380;BME280;37474;59.468;18.040;2022-12-16T13:27:26;101537.53;;;-15.28;99.27
50380;BME280;37474;59.468;18.040;2022-12-16T13:30:22;101540.44;;;-15.22;98.78
50380;BME280;37474;59.468;18.040;2022-12-16T13:33:23;101494.16;;;-15.58;98.50
50380;BME280;37474;59.468;18.040;2022-12-16T13:36:10;101550.72;;;-15.42;99.00
50380;BME280;37474;59.468;18.040;2022-12-16T13:39:06;101549.50;;;-15.35;99.16
50380;BME280;37474;59.468;18.040;2022-12-16T13:42:02;101549.09;;;-15.41;98.93
50380;BME280;37474;59.468;18.040;2022-12-16T13:44:57;101554.13;;;-15.53;99.89
50380;BME280;37474;59.468;18.040;2022-12-16T13:48:00;101555.63;;;-15.68;99.90
50380;BME280;37474;59.468;18.040;2022-12-16T13:50:48;101560.66;;;-15.92;99.50
50380;BME280;37474;59.468;18.040;2022-12-16T13:53:39;101495.13;;;-16.31;100.00